createdAt,value
2023-01-30T00:02:46.882Z,26.13
2023-01-30T00:07:49.233Z,24.42
2023-01-30T00:12:51.489Z,24.65
2023-01-30T00:17:53.699Z,25.25
2023-01-30T00:23:01.008Z,22.73
2023-01-30T00:28:03.573Z,26.17
2023-01-30T00:33:05.759Z,26.62
2023-01-30T00:38:07.872Z,22.95
2023-01-30T00:43:34.445Z,19.75
2023-01-30T00:48:36.846Z,23.50
2023-01-30T00:53:38.974Z,22.60
2023-01-30T00:58:41.074Z,23.65
2023-01-30T01:03:43.408Z,22.77
2023-01-30T01:08:45.731Z,21.83
2023-01-30T01:13:47.900Z,24.60
2023-01-30T01:18:50.618Z,23.93
2023-01-30T01:23:57.271Z,22.30
2023-01-30T01:28:59.840Z,26.75
2023-01-30T01:34:02.053Z,20.88
2023-01-30T01:39:04.811Z,24.45
2023-01-30T01:44:09.566Z,22.70
2023-01-30T01:49:14.595Z,19.70
2023-01-30T01:54:27.470Z,26.25
2023-01-30T01:59:42.423Z,23.92
2023-01-30T02:05:02.363Z,30.05
2023-01-30T02:10:06.945Z,21.30
2023-01-30T02:15:09.645Z,23.10
2023-01-30T02:20:26.217Z,24.52
2023-01-30T02:25:59.489Z,27.98
2023-01-30T02:31:15.746Z,22.60
2023-01-30T02:36:50.724Z,25.63
2023-01-30T02:42:11.192Z,26.30
2023-01-30T02:47:23.894Z,28.98
2023-01-30T02:52:27.385Z,26.15
2023-01-30T02:57:29.511Z,27.77
2023-01-30T03:03:08.577Z,24.80
2023-01-30T03:08:32.687Z,27.13
2023-01-30T03:14:03.228Z,24.83
2023-01-30T03:19:09.891Z,24.05
2023-01-30T03:24:13.099Z,26.55
2023-01-30T03:29:15.338Z,22.40
2023-01-30T03:34:17.493Z,21.30
2023-01-30T03:39:19.810Z,24.15
2023-01-30T03:44:22.365Z,18.23
2023-01-30T03:49:24.546Z,20.42
2023-01-30T03:54:26.672Z,24.97
2023-01-30T03:59:28.732Z,21.20
2023-01-30T04:04:30.867Z,20.88
2023-01-30T04:09:32.942Z,21.48
2023-01-30T04:14:35.106Z,24.83
2023-01-30T04:19:37.269Z,22.87
2023-01-30T04:24:39.340Z,29.40
2023-01-30T04:29:42.559Z,25.50
2023-01-30T04:34:45.227Z,24.58
2023-01-30T04:39:48.449Z,24.08
2023-01-30T04:44:50.514Z,27.10
2023-01-30T04:49:52.594Z,25.80
2023-01-30T04:54:54.740Z,30.90
2023-01-30T04:59:56.827Z,28.55
2023-01-30T05:04:59.255Z,28.27
2023-01-30T05:10:02.974Z,24.40
2023-01-30T05:15:06.831Z,26.73
2023-01-30T05:20:10.429Z,26.67
2023-01-30T05:25:12.729Z,27.37
2023-01-30T05:30:15.000Z,27.67
2023-01-30T05:35:17.378Z,30.30
2023-01-30T05:40:19.678Z,31.95
2023-01-30T05:45:21.787Z,33.05
2023-01-30T05:50:23.969Z,28.75
2023-01-30T05:55:26.061Z,31.52
2023-01-30T06:00:28.256Z,33.70
2023-01-30T06:05:30.681Z,30.95
2023-01-30T06:10:32.802Z,29.35
2023-01-30T06:15:34.913Z,26.87
2023-01-30T06:20:37.048Z,32.63
2023-01-30T06:25:39.144Z,34.60
2023-01-30T06:30:41.291Z,41.08
2023-01-30T06:35:43.867Z,39.28
2023-01-30T06:40:48.164Z,41.72
2023-01-30T06:45:50.373Z,35.13
2023-01-30T06:50:52.464Z,43.77
2023-01-30T06:55:54.561Z,39.85
2023-01-30T07:00:57.208Z,39.45
2023-01-30T07:05:59.460Z,35.58
2023-01-30T07:11:04.354Z,38.92
2023-01-30T07:16:06.942Z,35.93
2023-01-30T07:21:09.054Z,36.78
2023-01-30T07:26:11.241Z,37.85
2023-01-30T07:31:13.370Z,29.60
2023-01-30T07:36:15.513Z,28.25
2023-01-30T07:41:17.665Z,27.43
2023-01-30T07:46:19.766Z,32.05
2023-01-30T07:51:21.938Z,33.70
2023-01-30T07:56:24.417Z,39.22
2023-01-30T08:01:26.567Z,37.25
2023-01-30T08:06:28.790Z,34.67
2023-01-30T08:11:31.056Z,37.25
2023-01-30T08:16:34.168Z,34.25
2023-01-30T08:21:36.340Z,32.28
2023-01-30T08:26:38.569Z,25.62
2023-01-30T08:31:40.726Z,25.40
2023-01-30T08:36:46.645Z,26.27
2023-01-30T08:41:48.952Z,27.67
2023-01-30T08:46:51.156Z,30.12
2023-01-30T08:51:53.272Z,32.22
2023-01-30T08:56:55.408Z,37.37
2023-01-30T09:01:57.556Z,34.47
2023-01-30T09:06:59.748Z,28.83
2023-01-30T09:12:02.035Z,38.83
2023-01-30T09:17:04.167Z,34.83
2023-01-30T09:22:07.696Z,32.97
2023-01-30T09:27:10.003Z,30.08
2023-01-30T09:32:12.126Z,36.47
2023-01-30T09:37:14.939Z,27.95
2023-01-30T09:42:19.988Z,29.17
2023-01-30T09:47:53.253Z,27.27
2023-01-30T09:53:06.067Z,27.20
2023-01-30T09:58:25.646Z,33.00
2023-01-30T10:03:33.814Z,29.25
2023-01-30T10:08:54.491Z,28.90
2023-01-30T10:14:15.181Z,31.33
2023-01-30T10:19:36.292Z,27.37
2023-01-30T10:24:44.772Z,27.48
2023-01-30T10:29:58.787Z,25.55
2023-01-30T10:35:07.958Z,27.90
2023-01-30T10:40:48.295Z,32.70
2023-01-30T10:46:35.482Z,29.95
2023-01-30T10:51:46.380Z,28.20
2023-01-30T10:57:20.649Z,25.02
2023-01-30T11:02:31.517Z,28.02
2023-01-30T11:07:34.275Z,28.20
2023-01-30T11:12:36.384Z,28.05
2023-01-30T11:17:43.285Z,25.12
2023-01-30T11:22:52.199Z,29.42
2023-01-30T11:28:03.384Z,28.23
2023-01-30T11:33:13.246Z,27.40
2023-01-30T11:38:27.668Z,28.50
2023-01-30T11:43:30.127Z,26.45
2023-01-30T11:49:32.082Z,24.15
2023-01-30T11:54:01.154Z,27.65
2023-01-30T11:59:25.965Z,27.40
2023-01-30T12:04:28.966Z,30.00
2023-01-30T12:09:40.040Z,30.20
2023-01-30T12:14:49.346Z,27.20
2023-01-30T12:20:23.605Z,25.55
2023-01-30T12:25:29.727Z,26.33
2023-01-30T12:30:47.347Z,26.48
2023-01-30T12:36:12.725Z,26.73
2023-01-30T12:41:22.645Z,24.75
2023-01-30T12:46:30.899Z,29.90
2023-01-30T12:51:49.464Z,29.73
2023-01-30T12:56:54.514Z,28.25
2023-01-30T13:02:21.649Z,27.35
2023-01-30T13:07:48.732Z,20.95
2023-01-30T13:13:04.845Z,27.87
2023-01-30T13:18:23.759Z,26.83
2023-01-30T13:23:48.077Z,27.98
2023-01-30T13:28:56.410Z,28.73
2023-01-30T13:34:20.275Z,28.50
2023-01-30T13:39:48.031Z,27.08
2023-01-30T13:44:52.389Z,27.37
2023-01-30T13:50:33.893Z,25.27
2023-01-30T13:55:45.430Z,24.58
2023-01-30T14:00:55.237Z,27.40
2023-01-30T14:05:59.141Z,20.98
2023-01-30T14:11:02.214Z,29.20
2023-01-30T14:16:06.326Z,21.92
2023-01-30T14:21:26.383Z,28.12
2023-01-30T14:26:47.336Z,21.27
2023-01-30T14:31:50.660Z,23.77
2023-01-30T14:36:54.074Z,23.00
2023-01-30T14:42:32.356Z,21.58
2023-01-30T14:47:46.257Z,24.27
2023-01-30T14:52:50.390Z,22.15
2023-01-30T14:58:03.004Z,21.27
2023-01-30T15:03:16.751Z,21.83
2023-01-30T15:08:24.964Z,23.40
2023-01-30T15:13:39.252Z,22.25
2023-01-30T15:18:47.199Z,22.20
2023-01-30T15:24:14.044Z,26.05
2023-01-30T15:29:48.665Z,23.50
2023-01-30T15:34:59.557Z,26.23
2023-01-30T15:40:18.167Z,24.80
2023-01-30T15:45:23.598Z,20.90
2023-01-30T15:50:25.785Z,23.35
2023-01-30T15:55:33.118Z,23.70
2023-01-30T16:00:39.564Z,27.37
2023-01-30T16:05:49.904Z,15.48
2023-01-30T16:10:52.600Z,24.58
2023-01-30T16:16:12.823Z,21.60
2023-01-30T16:21:35.500Z,22.87
2023-01-30T16:27:01.254Z,23.73
2023-01-30T16:32:13.171Z,21.20
2023-01-30T16:37:21.082Z,20.65
2023-01-30T16:42:28.397Z,26.77
2023-01-30T16:47:31.648Z,25.47
2023-01-30T16:52:44.476Z,24.20
2023-01-30T16:57:58.882Z,24.25
2023-01-30T17:03:05.147Z,25.23
2023-01-30T17:08:32.748Z,23.87
2023-01-30T17:13:39.049Z,25.53
2023-01-30T17:18:41.104Z,22.50
2023-01-30T17:23:50.886Z,20.75
2023-01-30T17:28:52.995Z,18.73
2023-01-30T17:33:55.124Z,17.85
2023-01-30T17:39:04.481Z,21.97
2023-01-30T17:44:08.442Z,15.00
2023-01-30T17:49:23.486Z,22.92
2023-01-30T17:54:26.675Z,16.67
2023-01-30T17:59:29.289Z,18.37
2023-01-30T18:04:31.373Z,21.10
2023-01-30T18:09:33.531Z,16.70
2023-01-30T18:14:35.793Z,17.50
2023-01-30T18:19:38.094Z,16.52
2023-01-30T18:24:40.268Z,16.17
2023-01-30T18:29:42.380Z,15.43
2023-01-30T18:34:44.521Z,19.75
2023-01-30T18:39:46.608Z,17.87
2023-01-30T18:44:48.701Z,17.80
2023-01-30T18:49:50.817Z,17.35
2023-01-30T18:54:53.063Z,18.87
2023-01-30T18:59:55.261Z,17.98
2023-01-30T19:04:57.368Z,19.05
2023-01-30T19:10:00.574Z,18.27
2023-01-30T19:15:03.492Z,14.87
2023-01-30T19:20:10.944Z,15.57
2023-01-30T19:25:13.144Z,12.60
2023-01-30T19:30:15.473Z,14.23
2023-01-30T19:35:18.404Z,15.07
2023-01-30T19:40:20.944Z,14.50
2023-01-30T19:45:23.334Z,13.13
2023-01-30T19:50:25.528Z,10.43
2023-01-30T19:55:27.929Z,11.68
2023-01-30T20:00:30.306Z,13.80
2023-01-30T20:05:32.456Z,11.63
2023-01-30T20:10:34.899Z,12.53
2023-01-30T20:15:39.546Z,10.57
2023-01-30T20:20:41.731Z,11.05
2023-01-30T20:25:43.936Z,11.73
2023-01-30T20:30:46.186Z,11.05
2023-01-30T20:35:48.307Z,11.10
2023-01-30T20:40:50.405Z,11.12
2023-01-30T20:46:06.025Z,10.20
2023-01-30T20:51:09.723Z,11.73
2023-01-30T20:56:11.882Z,9.73
2023-01-30T21:01:22.717Z,10.80
2023-01-30T21:06:42.777Z,10.85
2023-01-30T21:11:47.995Z,10.20
2023-01-30T21:16:50.707Z,9.68
2023-01-30T21:21:55.129Z,9.95
2023-01-30T21:26:57.514Z,10.73
2023-01-30T21:31:59.883Z,9.75
2023-01-30T21:37:20.699Z,10.77
2023-01-30T21:42:41.698Z,11.20
2023-01-30T21:47:43.787Z,9.32
2023-01-30T21:52:45.940Z,10.00
2023-01-30T21:57:48.043Z,10.98
2023-01-30T22:02:50.569Z,11.15
2023-01-30T22:07:52.722Z,10.75
2023-01-30T22:12:55.212Z,10.95
2023-01-30T22:17:57.289Z,11.03
2023-01-30T22:22:59.398Z,10.60
2023-01-30T22:28:01.584Z,10.88
2023-01-30T22:33:03.788Z,10.43
2023-01-30T22:38:05.900Z,12.02
2023-01-30T22:43:08.206Z,10.07
2023-01-30T22:48:10.286Z,9.00
2023-01-30T22:53:12.379Z,8.60
2023-01-30T22:58:24.139Z,10.88
2023-01-30T23:03:28.753Z,23.20
2023-01-30T23:08:32.545Z,10.37
2023-01-30T23:13:38.111Z,10.70
2023-01-30T23:18:55.255Z,9.25
2023-01-30T23:24:00.189Z,7.45
2023-01-30T23:29:07.511Z,11.12
2023-01-30T23:34:18.740Z,7.13
2023-01-30T23:39:20.887Z,7.75
2023-01-30T23:44:23.007Z,7.72
2023-01-30T23:49:25.204Z,7.90
2023-01-30T23:54:27.555Z,8.98
2023-01-30T23:59:29.729Z,9.67
